Time;durP1;ratioP1;P1;durP2;ratioP2;P2;SDS_P1;SDS_P2;PMS_P1;PMS_P2;Temp;Humidity;BMP_temperature;BMP_pressure;BME280_temperature;BME280_humidity;BME280_pressure;Samples;Min_cycle;Max_cycle;Signal;HPM_P1;HPM_P2
2022/03/31 00:01:26;;;;;;;6.30;6.00;;;;;;;11.44;56.83;99402.75;5037270;28;20090;-62
2022/03/31 00:03:51;;;;;;;6.30;6.00;;;;;;;11.39;56.89;99402.56;5034937;28;20033;-62
2022/03/31 00:06:17;;;;;;;6.32;6.03;;;;;;;11.35;56.72;99395.00;5040740;28;20032;-62
2022/03/31 00:08:42;;;;;;;5.90;5.70;;;;;;;11.35;57.74;99391.53;5032218;28;20524;-63
2022/03/31 00:11:08;;;;;;;6.50;6.20;;;;;;;11.39;57.49;99392.75;5025609;28;20033;-61
2022/03/31 00:13:34;;;;;;;5.93;5.72;;;;;;;11.33;58.72;99381.13;5054803;28;20098;-62
2022/03/31 00:15:59;;;;;;;6.32;6.03;;;;;;;11.28;59.34;99369.47;5054414;28;20463;-62
2022/03/31 00:18:27;;;;;;;6.00;5.80;;;;;;;11.28;59.64;99374.78;5048096;28;20052;-62
2022/03/31 00:20:53;;;;;;;6.05;5.82;;;;;;;11.26;59.70;99363.56;5025197;28;20531;-62
2022/03/31 00:23:18;;;;;;;6.40;6.10;;;;;;;11.28;60.11;99380.91;5033150;28;20032;-62
2022/03/31 00:25:44;;;;;;;6.63;6.32;;;;;;;11.20;60.50;99372.38;5037496;28;20099;-62
2022/03/31 00:28:09;;;;;;;6.40;6.10;;;;;;;11.23;60.47;99382.56;5036062;28;20039;-61
2022/03/31 00:30:35;;;;;;;6.18;5.93;;;;;;;11.15;61.00;99375.63;5054585;28;20029;-62
2022/03/31 00:33:01;;;;;;;6.45;6.15;;;;;;;11.13;60.58;99371.56;5045657;28;20018;-62
2022/03/31 00:35:27;;;;;;;6.40;6.10;;;;;;;11.12;59.98;99372.59;5034179;28;20017;-61
2022/03/31 00:37:52;;;;;;;6.32;6.03;;;;;;;11.09;60.17;99376.47;5034032;28;20037;-61
2022/03/31 00:40:20;;;;;;;6.35;6.05;;;;;;;11.04;60.73;99378.91;5039242;28;20025;-60
2022/03/31 00:42:51;;;;;;;6.30;6.00;;;;;;;11.08;59.96;99372.16;5053805;28;20047;-61
2022/03/31 00:45:19;;;;;;;6.00;5.80;;;;;;;10.98;60.06;99367.28;5039905;28;20025;-62
2022/03/31 00:47:45;;;;;;;6.55;6.25;;;;;;;10.98;59.60;99363.81;5034390;28;20027;-62
2022/03/31 00:50:12;;;;;;;6.40;6.10;;;;;;;10.92;58.52;99359.31;5035233;28;20492;-61
2022/03/31 00:52:38;;;;;;;6.20;5.90;;;;;;;10.91;58.32;99373.63;5033978;28;20053;-62
2022/03/31 00:55:05;;;;;;;6.32;6.03;;;;;;;10.82;58.82;99367.72;5034045;28;20018;-61
2022/03/31 00:57:32;;;;;;;6.40;6.10;;;;;;;10.75;59.14;99366.88;5048677;28;20049;-62
2022/03/31 00:59:57;;;;;;;6.40;6.10;;;;;;;10.67;59.20;99359.13;5053823;28;20104;-62
2022/03/31 01:02:25;;;;;;;6.40;6.10;;;;;;;10.69;58.88;99363.22;5036277;28;20116;-62
2022/03/31 01:04:51;;;;;;;6.30;6.00;;;;;;;10.66;59.18;99363.63;5033572;28;20080;-62
2022/03/31 01:07:17;;;;;;;5.93;5.72;;;;;;;10.62;59.73;99366.88;5034556;28;20108;-62
2022/03/31 01:09:42;;;;;;;6.20;5.90;;;;;;;10.64;59.15;99373.59;5034038;28;20470;-62
2022/03/31 01:12:08;;;;;;;6.43;6.13;;;;;;;10.54;59.80;99369.72;5028864;28;20037;-61
2022/03/31 01:14:34;;;;;;;5.80;5.60;;;;;;;10.46;59.93;99350.34;5044191;28;20033;-62
2022/03/31 01:17:00;;;;;;;6.13;5.88;;;;;;;10.52;60.20;99361.97;5033531;28;20481;-61
2022/03/31 01:19:25;;;;;;;5.90;5.70;;;;;;;10.48;60.32;99369.50;5034883;28;20112;-61
2022/03/31 01:21:51;;;;;;;5.90;5.70;;;;;;;10.46;60.15;99362.78;5032707;28;20129;-62
2022/03/31 01:24:18;;;;;;;6.20;5.90;;;;;;;10.47;60.25;99356.47;5039162;28;20029;-62
2022/03/31 01:26:43;;;;;;;6.03;5.80;;;;;;;10.48;60.24;99344.84;5053230;28;20489;-62
2022/03/31 01:29:09;;;;;;;5.93;5.72;;;;;;;10.39;61.10;99344.22;5046624;28;20036;-61
2022/03/31 01:31:37;;;;;;;5.90;5.70;;;;;;;10.35;61.03;99347.47;5013190;28;20033;-62
2022/03/31 01:34:03;;;;;;;6.00;5.80;;;;;;;10.29;61.95;99343.00;5046231;28;20024;-62
2022/03/31 01:36:29;;;;;;;6.45;6.15;;;;;;;10.21;62.17;99328.06;5037302;28;20440;-61
2022/03/31 01:38:55;;;;;;;6.00;5.80;;;;;;;10.22;62.30;99349.09;5033187;28;20051;-61
2022/03/31 01:41:24;;;;;;;6.50;6.20;;;;;;;10.19;62.63;99341.50;5033598;28;20025;-62
2022/03/31 01:43:50;;;;;;;6.45;6.15;;;;;;;10.28;62.23;99336.03;5032937;28;20021;-62
2022/03/31 01:46:15;;;;;;;6.00;5.80;;;;;;;10.20;62.56;99335.19;5039826;28;20507;-62
2022/03/31 01:48:41;;;;;;;6.32;6.03;;;;;;;10.14;62.99;99346.59;5032578;28;20029;-61
2022/03/31 01:51:07;;;;;;;6.43;6.13;;;;;;;10.04;63.27;99343.50;5041298;28;20078;-62
2022/03/31 01:53:35;;;;;;;6.40;6.10;;;;;;;10.01;63.83;99337.81;5040365;28;20025;-62
2022/03/31 01:56:02;;;;;;;6.35;6.05;;;;;;;9.90;63.35;99342.66;5052309;28;20033;-62
2022/03/31 01:58:28;;;;;;;6.20;5.90;;;;;;;9.87;63.47;99344.91;5050629;28;20025;-61
2022/03/31 02:00:53;;;;;;;6.35;6.05;;;;;;;9.77;64.10;99350.56;5033061;28;20029;-61
2022/03/31 02:03:19;;;;;;;6.43;6.13;;;;;;;9.81;63.20;99346.50;5035821;28;20037;-61
2022/03/31 02:05:44;;;;;;;6.15;5.88;;;;;;;9.80;63.71;99330.81;5012895;28;20465;-61
2022/03/31 02:08:10;;;;;;;6.22;5.93;;;;;;;9.85;62.89;99337.16;5041492;28;20036;-61
2022/03/31 02:10:36;;;;;;;6.00;5.80;;;;;;;9.79;62.99;99342.41;5052429;28;20472;-61
2022/03/31 02:13:02;;;;;;;6.18;5.88;;;;;;;9.67;63.40;99342.16;5051437;28;20021;-61
2022/03/31 02:15:29;;;;;;;5.93;5.72;;;;;;;9.62;63.66;99347.22;5043463;28;20473;-61
2022/03/31 02:17:55;;;;;;;6.35;6.05;;;;;;;9.56;64.45;99348.03;5040895;28;20090;-62
2022/03/31 02:20:22;;;;;;;6.40;6.10;;;;;;;9.46;64.14;99340.44;5018424;28;20108;-62
2022/03/31 02:22:47;;;;;;;6.22;5.93;;;;;;;9.36;64.67;99347.94;5038536;28;20033;-62
2022/03/31 02:25:13;;;;;;;6.25;5.95;;;;;;;9.32;65.27;99352.78;5051536;28;20070;-62
2022/03/31 02:27:39;;;;;;;6.40;6.10;;;;;;;9.33;65.00;99349.16;5052004;28;20500;-62
2022/03/31 02:30:07;;;;;;;6.25;5.95;;;;;;;9.35;66.31;99347.13;5052312;28;20496;-62
2022/03/31 02:32:32;;;;;;;6.68;6.38;;;;;;;9.26;67.03;99347.47;5047637;28;20436;-61
2022/03/31 02:34:58;;;;;;;6.28;5.97;;;;;;;9.21;67.05;99350.69;5044572;28;20032;-61
2022/03/31 02:37:24;;;;;;;6.40;6.10;;;;;;;9.21;68.39;99344.59;5032157;28;20033;-61
2022/03/31 02:39:50;;;;;;;6.38;6.07;;;;;;;9.13;68.48;99350.84;5039553;28;20017;-61
2022/03/31 02:42:16;;;;;;;6.00;5.80;;;;;;;9.08;69.53;99356.72;5025678;28;20049;-62
2022/03/31 02:44:42;;;;;;;6.57;6.28;;;;;;;9.02;70.01;99346.91;5012277;28;20156;-62
2022/03/31 02:47:09;;;;;;;5.80;5.60;;;;;;;8.95;70.10;99355.81;5012342;28;20105;-61
2022/03/31 02:49:35;;;;;;;7.32;7.00;;;;;;;8.89;70.95;99356.56;5025363;28;20030;-61
2022/03/31 02:52:01;;;;;;;6.57;6.28;;;;;;;8.85;71.31;99361.44;5046826;28;20020;-63
2022/03/31 02:57:11;;;;;;;6.20;5.90;;;;;;;8.79;70.88;99373.59;5026282;28;20057;-62
2022/03/31 02:59:38;;;;;;;5.90;5.70;;;;;;;8.69;71.40;99369.66;5031870;28;20408;-62
2022/03/31 03:02:04;;;;;;;6.25;5.95;;;;;;;8.60;71.34;99350.47;5031861;28;20393;-62
2022/03/31 03:04:29;;;;;;;6.15;5.85;;;;;;;8.60;71.82;99354.94;5031863;28;20028;-62
2022/03/31 03:06:55;;;;;;;5.90;5.70;;;;;;;8.60;73.15;99361.03;5035867;28;20037;-62
2022/03/31 03:09:20;;;;;;;5.97;5.78;;;;;;;8.63;72.07;99358.00;5035752;28;20405;-62
2022/03/31 03:11:46;;;;;;;5.85;5.65;;;;;;;8.58;72.28;99355.09;5055591;28;20468;-61
2022/03/31 03:14:13;;;;;;;6.20;5.90;;;;;;;8.31;74.17;99365.44;5048611;28;20029;-62
2022/03/31 03:16:42;;;;;;;6.18;5.88;;;;;;;8.34;73.99;99364.22;5035789;28;20025;-62
2022/03/31 03:19:08;;;;;;;5.90;5.70;;;;;;;8.15;75.19;99359.53;5035607;28;20207;-61
2022/03/31 03:21:34;;;;;;;6.28;5.97;;;;;;;8.12;74.37;99362.56;5034751;28;20022;-62
2022/03/31 03:24:01;;;;;;;7.20;6.88;;;;;;;8.03;73.85;99357.41;5025788;28;20052;-62
2022/03/31 03:26:27;;;;;;;6.20;5.90;;;;;;;7.94;74.62;99355.06;5051117;28;20438;-62
2022/03/31 03:28:53;;;;;;;6.25;5.95;;;;;;;7.95;75.33;99365.44;5055489;28;20021;-61
2022/03/31 03:31:18;;;;;;;6.95;6.65;;;;;;;7.94;73.81;99350.63;5044059;28;20076;-62
2022/03/31 03:33:44;;;;;;;6.10;5.80;;;;;;;7.94;74.06;99361.19;5049912;28;20072;-60
2022/03/31 03:36:12;;;;;;;6.30;6.00;;;;;;;7.98;73.98;99348.41;5049748;28;20041;-62
2022/03/31 03:38:41;;;;;;;6.72;6.43;;;;;;;7.96;74.91;99347.78;5039397;28;20025;-61
2022/03/31 03:41:07;;;;;;;6.68;6.38;;;;;;;8.06;74.79;99350.94;5034338;28;20075;-62
2022/03/31 03:43:33;;;;;;;6.70;6.40;;;;;;;8.10;73.64;99362.75;5053429;28;20111;-62
2022/03/31 03:45:58;;;;;;;6.65;6.35;;;;;;;8.00;74.60;99360.41;5039008;28;20536;-62
2022/03/31 03:48:24;;;;;;;6.47;6.18;;;;;;;8.02;74.45;99354.97;5036219;28;20095;-62
2022/03/31 03:50:50;;;;;;;6.93;6.63;;;;;;;7.83;75.68;99348.44;5044599;28;20029;-62
2022/03/31 03:53:15;;;;;;;6.15;5.85;;;;;;;7.74;76.44;99344.28;5035960;28;20064;-61
2022/03/31 03:55:41;;;;;;;7.38;7.00;;;;;;;7.55;77.03;99321.91;5021226;28;20412;-62
2022/03/31 03:58:07;;;;;;;7.95;7.55;;;;;;;7.83;75.79;99340.53;5033167;28;20057;-62
2022/03/31 04:00:32;;;;;;;7.28;6.95;;;;;;;8.00;75.38;99349.03;5035385;28;20033;-61
2022/03/31 04:02:58;;;;;;;5.93;5.72;;;;;;;8.18;74.74;99343.34;5051995;28;20029;-61
2022/03/31 04:05:24;;;;;;;6.82;6.53;;;;;;;8.14;75.52;99342.88;5046634;28;20039;-62
2022/03/31 04:07:49;;;;;;;6.68;6.38;;;;;;;8.12;75.68;99346.72;5055117;28;20468;-61
2022/03/31 04:10:15;;;;;;;6.60;6.30;;;;;;;8.38;73.94;99339.09;5042301;28;20408;-63
2022/03/31 04:12:40;;;;;;;6.50;6.20;;;;;;;8.65;73.00;99336.66;5014992;28;20034;-62
2022/03/31 04:15:08;;;;;;;6.97;6.68;;;;;;;8.80;72.12;99334.75;5042051;28;20029;-62
2022/03/31 04:17:34;;;;;;;6.93;6.63;;;;;;;8.90;71.84;99337.88;5036155;28;20034;-62
2022/03/31 04:20:00;;;;;;;7.53;7.15;;;;;;;9.22;70.56;99343.56;5035901;28;20029;-62
2022/03/31 04:22:26;;;;;;;7.00;6.70;;;;;;;9.26;70.00;99344.84;5046644;28;20070;-62
2022/03/31 04:24:51;;;;;;;7.00;6.70;;;;;;;9.62;68.63;99355.16;5042348;28;20102;-63
2022/03/31 04:27:17;;;;;;;6.78;6.47;;;;;;;9.71;68.28;99346.06;5034193;28;20527;-63
2022/03/31 04:29:43;;;;;;;6.68;6.38;;;;;;;10.00;67.80;99347.59;5033692;28;20503;-62
2022/03/31 04:32:09;;;;;;;7.57;7.18;;;;;;;9.46;68.93;99340.44;5032093;28;20048;-62
2022/03/31 04:34:35;;;;;;;6.40;6.10;;;;;;;10.53;66.27;99339.75;5029517;28;20056;-62
2022/03/31 04:37:01;;;;;;;6.30;6.00;;;;;;;11.50;62.25;99338.19;5033983;28;20029;-62
2022/03/31 04:39:27;;;;;;;6.53;6.22;;;;;;;12.06;59.72;99350.84;5033808;28;20025;-63
2022/03/31 04:41:53;;;;;;;6.90;6.60;;;;;;;11.55;60.09;99341.03;5036936;28;20033;-62
2022/03/31 04:44:19;;;;;;;6.97;6.68;;;;;;;11.23;61.63;99346.19;5036567;28;20039;-62
2022/03/31 04:46:45;;;;;;;6.60;6.30;;;;;;;10.51;64.19;99347.09;5047304;28;20033;-62
2022/03/31 04:49:11;;;;;;;7.05;6.75;;;;;;;10.70;63.16;99351.56;5033997;28;20033;-63
2022/03/31 04:51:37;;;;;;;6.75;6.45;;;;;;;10.84;62.57;99354.22;5042596;28;20400;-63
2022/03/31 04:54:03;;;;;;;6.53;6.22;;;;;;;10.30;64.52;99337.50;5039661;28;20067;-62
2022/03/31 04:56:29;;;;;;;6.70;6.40;;;;;;;10.59;64.31;99346.91;5033386;28;20049;-61
2022/03/31 04:58:55;;;;;;;6.72;6.43;;;;;;;11.23;61.34;99345.38;5033561;28;20032;-62
2022/03/31 05:01:22;;;;;;;6.70;6.40;;;;;;;11.63;59.62;99346.09;5032092;28;20033;-61
2022/03/31 05:03:47;;;;;;;6.80;6.50;;;;;;;14.99;49.56;99347.38;5039693;28;20036;-61
2022/03/31 05:06:13;;;;;;;6.40;6.10;;;;;;;13.41;51.95;99349.34;5052397;28;20025;-61
2022/03/31 05:08:38;;;;;;;6.68;6.38;;;;;;;12.37;56.60;99342.88;5046801;28;20104;-61
2022/03/31 05:11:04;;;;;;;7.00;6.70;;;;;;;13.68;52.84;99347.19;5034022;28;20116;-61
2022/03/31 05:13:29;;;;;;;6.50;6.20;;;;;;;16.83;44.49;99356.06;5033345;28;20061;-62
2022/03/31 05:15:55;;;;;;;7.10;6.80;;;;;;;17.80;41.50;99365.47;5033514;28;20028;-62
2022/03/31 05:18:21;;;;;;;6.80;6.50;;;;;;;17.85;40.64;99362.88;5032957;28;20043;-63
2022/03/31 05:20:47;;;;;;;6.93;6.63;;;;;;;17.95;40.64;99360.28;5044386;28;20026;-62
2022/03/31 05:23:12;;;;;;;6.60;6.30;;;;;;;17.60;40.90;99347.22;5033821;28;20025;-62
2022/03/31 05:25:38;;;;;;;6.80;6.50;;;;;;;18.95;38.53;99359.88;5048265;28;20364;-61
2022/03/31 05:28:04;;;;;;;7.20;6.90;;;;;;;18.74;38.64;99365.13;5052615;28;20028;-62
2022/03/31 05:30:30;;;;;;;7.00;6.70;;;;;;;18.80;38.33;99365.94;5032958;28;20026;-60
2022/03/31 05:32:55;;;;;;;7.07;6.78;;;;;;;18.77;38.93;99355.72;5039178;28;20025;-62
2022/03/31 05:35:21;;;;;;;7.35;7.05;;;;;;;19.60;37.17;99358.69;5042867;28;20033;-62
2022/03/31 05:37:47;;;;;;;7.30;7.00;;;;;;;18.42;38.35;99369.63;5039510;28;20389;-63
2022/03/31 05:40:15;;;;;;;6.78;6.47;;;;;;;18.57;38.55;99364.38;5051466;28;20435;-62
2022/03/31 05:42:40;;;;;;;7.22;6.93;;;;;;;18.45;39.06;99353.81;5052861;28;20697;-62
2022/03/31 05:45:09;;;;;;;7.10;6.80;;;;;;;19.85;36.88;99358.00;5045015;28;20029;-62
2022/03/31 05:47:35;;;;;;;7.72;7.43;;;;;;;20.34;35.58;99363.75;5030648;28;20465;-62
2022/03/31 05:50:03;;;;;;;7.50;7.20;;;;;;;21.39;33.74;99357.84;5022779;28;20057;-68
2022/03/31 05:52:28;;;;;;;6.70;6.40;;;;;;;21.36;33.05;99342.19;5028903;28;20396;-66
2022/03/31 05:54:54;;;;;;;6.82;6.53;;;;;;;21.01;34.29;99353.84;5027817;28;20029;-67
2022/03/31 05:57:20;;;;;;;7.00;6.70;;;;;;;20.95;33.72;99355.72;5035348;28;20391;-66
2022/03/31 05:59:45;;;;;;;6.95;6.65;;;;;;;21.70;32.85;99358.53;5037477;28;20490;-67
2022/03/31 06:02:11;;;;;;;6.88;6.57;;;;;;;20.86;33.70;99365.44;5030414;28;20593;-68
2022/03/31 06:04:39;;;;;;;7.20;6.90;;;;;;;21.37;32.40;99359.16;5032364;28;20024;-67
2022/03/31 06:07:06;;;;;;;7.13;6.82;;;;;;;21.98;32.36;99364.34;5038011;28;20108;-67
2022/03/31 06:09:32;;;;;;;6.70;6.40;;;;;;;20.82;33.61;99367.06;5038743;28;20032;-67
2022/03/31 06:11:58;;;;;;;7.00;6.70;;;;;;;20.36;34.80;99360.81;5033342;28;20030;-67
2022/03/31 06:14:23;;;;;;;6.90;6.60;;;;;;;19.35;35.99;99347.78;5037860;28;20025;-67
2022/03/31 06:16:49;;;;;;;6.90;6.60;;;;;;;20.65;34.11;99361.94;5030958;28;20473;-66
2022/03/31 06:19:15;;;;;;;7.07;6.78;;;;;;;18.96;36.88;99348.88;5035144;28;20041;-67
2022/03/31 06:21:41;;;;;;;7.03;6.72;;;;;;;20.37;34.72;99362.44;5033158;28;20051;-67
2022/03/31 06:24:07;;;;;;;7.00;6.70;;;;;;;20.58;34.75;99358.72;5027506;28;20028;-67
2022/03/31 06:26:33;;;;;;;7.00;6.70;;;;;;;18.87;37.01;99342.34;5035949;28;20039;-67
2022/03/31 06:28:59;;;;;;;6.75;6.45;;;;;;;19.16;36.79;99352.75;5048343;28;20024;-68
2022/03/31 06:31:25;;;;;;;6.90;6.60;;;;;;;19.90;35.06;99349.91;5019463;28;20109;-67
2022/03/31 06:33:52;;;;;;;6.80;6.50;;;;;;;19.39;36.00;99352.38;5035482;28;20117;-67
2022/03/31 06:36:17;;;;;;;6.85;6.55;;;;;;;18.51;37.81;99346.63;5032008;28;20111;-67
2022/03/31 06:38:43;;;;;;;6.93;6.63;;;;;;;19.70;35.90;99337.22;5034683;28;20653;-67
2022/03/31 06:41:10;;;;;;;6.90;6.60;;;;;;;19.93;35.59;99337.81;5039942;28;20017;-67
2022/03/31 06:43:41;;;;;;;6.60;6.30;;;;;;;18.83;37.17;99337.78;5037746;28;20025;-67
2022/03/31 06:46:08;;;;;;;6.93;6.63;;;;;;;18.46;38.25;99347.38;5039825;28;20037;-67
2022/03/31 06:48:36;;;;;;;7.20;6.90;;;;;;;18.52;38.28;99342.06;5032472;28;20021;-67
2022/03/31 06:51:02;;;;;;;6.80;6.50;;;;;;;18.40;38.39;99321.53;5031620;28;20494;-67
2022/03/31 06:53:27;;;;;;;7.20;6.90;;;;;;;17.92;39.39;99325.91;5031703;28;20108;-67
2022/03/31 06:55:53;;;;;;;7.05;6.75;;;;;;;17.31;40.39;99325.13;5029215;28;20114;-67
2022/03/31 06:58:21;;;;;;;7.00;6.70;;;;;;;17.50;40.39;99338.25;5031288;28;20392;-67
2022/03/31 07:00:47;;;;;;;7.30;7.00;;;;;;;17.60;40.75;99339.19;5031321;28;20025;-67
2022/03/31 07:03:12;;;;;;;6.90;6.60;;;;;;;17.58;39.52;99337.81;5031766;28;20029;-67
2022/03/31 07:05:38;;;;;;;6.90;6.60;;;;;;;17.60;40.47;99341.06;5032851;28;20033;-67
2022/03/31 07:08:04;;;;;;;7.30;7.00;;;;;;;16.21;42.45;99344.53;5035784;28;20018;-67
2022/03/31 07:10:30;;;;;;;7.00;6.70;;;;;;;16.55;42.00;99346.22;5037429;28;20111;-67
2022/03/31 07:12:56;;;;;;;6.95;6.65;;;;;;;16.12;44.53;99344.13;5049486;28;20460;-67
2022/03/31 07:15:21;;;;;;;6.80;6.50;;;;;;;17.69;41.07;99351.09;5037340;28;20468;-67
2022/03/31 07:17:47;;;;;;;7.18;6.88;;;;;;;17.52;41.62;99362.94;5042966;28;20044;-68
2022/03/31 07:20:13;;;;;;;7.20;6.90;;;;;;;16.83;43.22;99374.03;5044733;28;20039;-67
2022/03/31 07:22:47;;;;;;;7.78;7.47;;;;;;;16.61;44.37;99368.53;5032551;28;20029;-68
2022/03/31 07:25:14;;;;;;;6.80;6.50;;;;;;;14.48;50.12;99362.16;5035665;28;20030;-67
2022/03/31 07:27:40;;;;;;;7.28;6.97;;;;;;;16.09;46.95;99367.88;5029707;28;20037;-67
2022/03/31 07:30:07;;;;;;;7.60;7.30;;;;;;;16.38;45.81;99363.28;5029490;28;20018;-67
2022/03/31 07:32:33;;;;;;;7.13;6.82;;;;;;;15.63;46.95;99358.94;5034578;28;20527;-67
2022/03/31 07:35:00;;;;;;;7.18;6.88;;;;;;;17.87;42.56;99357.25;5032687;28;20056;-67
2022/03/31 07:37:26;;;;;;;7.32;7.03;;;;;;;18.49;41.32;99362.97;5034658;28;20091;-67
2022/03/31 07:39:51;;;;;;;7.05;6.75;;;;;;;16.66;44.43;99373.16;5034325;28;20025;-67
2022/03/31 07:42:18;;;;;;;6.97;6.68;;;;;;;19.95;38.65;99379.53;5033548;28;20416;-68
2022/03/31 07:44:45;;;;;;;6.97;6.68;;;;;;;21.13;35.97;99373.22;5049418;28;20056;-67
2022/03/31 07:47:10;;;;;;;6.80;6.50;;;;;;;19.58;38.42;99364.31;5031293;28;20129;-67
2022/03/31 07:49:36;;;;;;;6.97;6.68;;;;;;;16.55;44.40;99361.47;5024881;28;20422;-67
2022/03/31 07:52:02;;;;;;;6.95;6.65;;;;;;;17.24;43.47;99367.38;5032377;28;20026;-67
2022/03/31 07:54:28;;;;;;;6.78;6.47;;;;;;;20.20;37.30;99364.53;5040118;28;20048;-67
2022/03/31 07:56:54;;;;;;;7.00;6.70;;;;;;;21.36;35.65;99361.06;5037876;28;20041;-67
2022/03/31 07:59:23;;;;;;;7.10;6.80;;;;;;;19.16;38.69;99360.81;5034969;28;20022;-67
2022/03/31 08:01:49;;;;;;;6.90;6.60;;;;;;;20.26;36.75;99369.66;5026879;28;20025;-66
2022/03/31 08:04:16;;;;;;;7.22;6.93;;;;;;;20.41;36.22;99361.59;5031944;28;20036;-66
2022/03/31 08:06:42;;;;;;;6.85;6.55;;;;;;;21.00;35.76;99362.97;5030497;28;20125;-67
2022/03/31 08:09:10;;;;;;;7.30;7.00;;;;;;;19.48;36.95;99361.56;5043513;28;20099;-67
2022/03/31 08:11:36;;;;;;;6.53;6.22;;;;;;;18.17;40.24;99337.97;5033997;28;20685;-67
2022/03/31 08:14:02;;;;;;;7.20;6.90;;;;;;;19.74;37.27;99348.25;5020863;28;20031;-67
2022/03/31 08:16:27;;;;;;;7.38;7.07;;;;;;;20.76;35.81;99353.84;5033216;28;20485;-67
2022/03/31 08:18:54;;;;;;;6.85;6.55;;;;;;;20.09;36.58;99347.56;5030313;28;20057;-67
2022/03/31 08:21:19;;;;;;;6.60;6.30;;;;;;;17.66;40.58;99348.91;5032132;28;20021;-67
2022/03/31 08:23:45;;;;;;;6.57;6.28;;;;;;;21.24;35.00;99350.56;5035056;28;20025;-67
2022/03/31 08:26:10;;;;;;;6.70;6.40;;;;;;;20.08;35.90;99352.13;5040974;28;20092;-67
2022/03/31 08:28:36;;;;;;;6.85;6.55;;;;;;;20.53;35.35;99347.13;5033965;28;20037;-67
2022/03/31 08:31:02;;;;;;;6.60;6.30;;;;;;;21.44;33.86;99340.81;5028917;28;20120;-67
2022/03/31 08:33:27;;;;;;;7.22;6.93;;;;;;;21.29;33.98;99336.25;5031068;28;20489;-68
2022/03/31 08:35:53;;;;;;;6.82;6.53;;;;;;;21.11;33.75;99334.94;5042118;28;20025;-68
2022/03/31 08:38:18;;;;;;;7.40;7.10;;;;;;;21.02;33.80;99333.06;5036259;28;20111;-67
2022/03/31 08:40:44;;;;;;;7.28;6.97;;;;;;;20.00;34.30;99325.72;5039050;28;20022;-67
2022/03/31 08:43:10;;;;;;;6.88;6.57;;;;;;;20.05;34.34;99325.75;5037611;28;20029;-68
2022/03/31 08:45:38;;;;;;;6.90;6.60;;;;;;;19.28;35.09;99316.53;5029325;28;20018;-67
2022/03/31 08:48:04;;;;;;;6.63;6.32;;;;;;;19.68;35.67;99314.31;5033468;28;20025;-68
2022/03/31 08:50:33;;;;;;;6.80;6.50;;;;;;;18.45;37.42;99310.84;5029021;28;20040;-69
2022/03/31 08:52:59;;;;;;;6.90;6.60;;;;;;;19.65;35.26;99298.72;5045771;28;20025;-69
2022/03/31 08:55:24;;;;;;;6.80;6.50;;;;;;;19.16;35.73;99307.06;5032642;28;20076;-67
2022/03/31 08:57:54;;;;;;;6.90;6.60;;;;;;;17.80;37.87;99301.09;5040063;28;20045;-67
2022/03/31 09:00:21;;;;;;;6.90;6.60;;;;;;;18.46;36.39;99304.41;5039745;28;20028;-67
2022/03/31 09:03:00;;;;;;;6.75;6.45;;;;;;;19.80;34.56;99310.31;5049679;28;20024;-68
2022/03/31 09:05:34;;;;;;;6.80;6.50;;;;;;;18.33;37.17;99299.47;5045576;28;20037;-68
2022/03/31 09:08:02;;;;;;;6.75;6.45;;;;;;;18.30;36.70;99299.19;5030970;28;20096;-67
2022/03/31 09:10:42;;;;;;;7.00;6.70;;;;;;;18.60;35.93;99295.94;5027011;28;20448;-68
2022/03/31 09:13:21;;;;;;;6.90;6.60;;;;;;;18.64;35.33;99297.81;5033112;28;20424;-67
2022/03/31 09:15:52;;;;;;;6.80;6.50;;;;;;;19.43;34.60;99294.28;5033915;28;20119;-67
2022/03/31 09:18:20;;;;;;;6.78;6.47;;;;;;;19.81;33.91;99300.38;5035849;28;20025;-66
2022/03/31 09:20:47;;;;;;;7.97;7.63;;;;;;;19.73;33.93;99308.97;5028925;28;20033;-68
2022/03/31 09:23:40;;;;;;;6.70;6.40;;;;;;;20.17;33.67;99305.84;5030432;28;20029;-67
2022/03/31 09:26:10;;;;;;;6.68;6.38;;;;;;;20.00;33.61;99296.13;5037298;28;20476;-67
2022/03/31 09:28:39;;;;;;;6.97;6.68;;;;;;;20.15;33.25;99288.06;5040367;28;20056;-67
2022/03/31 09:31:08;;;;;;;7.22;6.93;;;;;;;20.37;32.84;99287.00;5017152;28;20025;-67
2022/03/31 09:33:34;;;;;;;7.15;6.85;;;;;;;18.67;34.88;99270.50;5038248;28;20033;-67
2022/03/31 09:36:16;;;;;;;7.40;7.10;;;;;;;19.62;33.57;99269.66;5031748;28;20083;-66
2022/03/31 09:39:05;;;;;;;6.75;6.45;;;;;;;19.42;33.15;99267.66;5032590;28;20026;-67
2022/03/31 09:41:36;;;;;;;7.15;6.85;;;;;;;19.26;33.27;99261.44;5031578;28;20778;-67
2022/03/31 09:44:07;;;;;;;6.60;6.30;;;;;;;19.52;32.92;99265.00;5032316;28;20144;-67
2022/03/31 09:46:35;;;;;;;6.90;6.60;;;;;;;19.16;32.96;99259.47;5031597;28;20102;-67
2022/03/31 09:49:29;;;;;;;6.93;6.63;;;;;;;19.32;33.04;99265.75;5025630;28;20034;-67
2022/03/31 09:51:59;;;;;;;6.85;6.55;;;;;;;20.05;32.01;99266.53;5035695;28;20029;-67
2022/03/31 09:54:29;;;;;;;7.00;6.70;;;;;;;20.41;30.73;99261.94;5044162;28;20033;-67
2022/03/31 09:56:56;;;;;;;6.72;6.43;;;;;;;20.65;30.39;99264.94;5022268;28;20041;-68
2022/03/31 09:59:27;;;;;;;6.60;6.30;;;;;;;20.97;30.08;99269.19;5031448;28;20084;-68
2022/03/31 10:01:52;;;;;;;6.93;6.63;;;;;;;20.96;29.75;99271.06;5034205;28;20425;-68
2022/03/31 10:04:18;;;;;;;6.80;6.50;;;;;;;21.60;29.26;99276.81;5039853;28;20068;-68
2022/03/31 10:06:43;;;;;;;6.97;6.68;;;;;;;21.66;28.91;99276.47;5031947;28;20056;-67
2022/03/31 10:09:11;;;;;;;6.90;6.60;;;;;;;21.66;28.20;99265.69;5046474;28;20025;-67
2022/03/31 10:11:42;;;;;;;6.80;6.50;;;;;;;21.57;28.30;99266.56;5031915;28;20036;-67
2022/03/31 10:14:33;;;;;;;7.20;6.90;;;;;;;21.24;28.14;99261.56;5033877;28;20017;-67
2022/03/31 10:17:01;;;;;;;6.70;6.40;;;;;;;20.39;28.84;99268.69;5021913;28;20493;-67
2022/03/31 10:19:35;;;;;;;6.97;6.68;;;;;;;21.44;27.75;99259.84;5025795;28;20145;-68
2022/03/31 10:25:07;;;;;;;6.88;6.57;;;;;;;21.89;26.89;99252.63;5048057;28;20055;-68
2022/03/31 10:27:35;;;;;;;6.90;6.60;;;;;;;21.77;26.65;99251.06;5031358;28;20032;-67
2022/03/31 10:30:20;;;;;;;6.93;6.63;;;;;;;22.01;26.48;99253.88;5033459;28;20101;-68
2022/03/31 10:33:02;;;;;;;6.70;6.40;;;;;;;21.94;26.35;99257.97;5028649;28;20029;-67
2022/03/31 10:35:33;;;;;;;7.00;6.70;;;;;;;21.65;26.15;99258.69;5029413;28;20297;-67
2022/03/31 10:38:13;;;;;;;7.00;6.70;;;;;;;21.49;26.09;99257.16;5033575;28;20083;-68
2022/03/31 10:40:42;;;;;;;6.47;6.18;;;;;;;21.19;24.78;99239.97;5028365;28;20033;-67
2022/03/31 10:43:19;;;;;;;6.85;6.55;;;;;;;20.79;25.13;99246.31;5032170;28;20021;-67
2022/03/31 10:45:44;;;;;;;6.75;6.45;;;;;;;21.05;24.34;99246.25;5036317;28;20488;-67
2022/03/31 10:48:19;;;;;;;6.90;6.60;;;;;;;21.64;23.84;99250.88;5038068;28;20040;-68
2022/03/31 10:50:46;;;;;;;6.70;6.40;;;;;;;20.94;24.41;99246.28;5030930;28;20082;-68
2022/03/31 10:53:13;;;;;;;7.00;6.70;;;;;;;21.07;24.52;99235.97;5030107;28;20165;-68
2022/03/31 10:55:48;;;;;;;7.00;6.70;;;;;;;21.39;23.99;99236.44;5038316;28;20029;-68
2022/03/31 10:58:25;;;;;;;7.45;7.15;;;;;;;21.53;23.92;99228.53;5029485;28;20047;-68
2022/03/31 11:01:12;;;;;;;7.72;7.43;;;;;;;21.63;23.92;99231.16;5026837;28;20369;-68
2022/03/31 11:03:37;;;;;;;6.97;6.68;;;;;;;22.01;23.90;99223.34;5040837;28;20484;-65
2022/03/31 11:06:05;;;;;;;7.03;6.72;;;;;;;21.62;24.03;99220.66;5022954;28;20041;-65
2022/03/31 11:08:40;;;;;;;7.55;7.25;;;;;;;21.83;23.67;99207.84;5031794;28;20032;-65
2022/03/31 11:11:05;;;;;;;7.00;6.70;;;;;;;21.64;23.70;99199.59;5039812;28;20078;-64
2022/03/31 11:13:32;;;;;;;6.90;6.60;;;;;;;21.66;23.43;99206.31;5024025;28;20033;-68
2022/03/31 11:15:58;;;;;;;6.97;6.68;;;;;;;21.55;23.90;99195.88;5033875;28;20544;-70
2022/03/31 11:18:24;;;;;;;6.75;6.45;;;;;;;21.54;23.93;99186.16;5036711;28;20044;-69
2022/03/31 11:21:02;;;;;;;7.20;6.90;;;;;;;21.56;23.70;99187.50;5022100;28;20072;-69
2022/03/31 11:23:30;;;;;;;7.47;7.18;;;;;;;22.09;23.39;99184.16;5032494;28;20100;-68
2022/03/31 11:25:56;;;;;;;7.00;6.70;;;;;;;21.72;23.84;99180.91;5032545;28;20037;-69
2022/03/31 11:28:22;;;;;;;7.07;6.78;;;;;;;21.75;23.54;99185.75;5036560;28;20075;-69
2022/03/31 11:30:49;;;;;;;7.40;7.10;;;;;;;22.14;23.87;99173.34;5027947;28;20021;-70
2022/03/31 11:33:15;;;;;;;7.20;6.90;;;;;;;22.19;23.46;99176.00;5033487;28;20018;-69
2022/03/31 11:35:42;;;;;;;7.05;6.75;;;;;;;21.58;24.69;99165.63;5022769;28;20034;-67
2022/03/31 11:38:18;;;;;;;7.78;7.47;;;;;;;22.03;24.02;99167.16;5037581;28;20026;-67
2022/03/31 11:40:49;;;;;;;7.00;6.70;;;;;;;22.25;23.81;99155.91;5034389;28;20070;-67